Time;durP1;ratioP1;P1;durP2;ratioP2;P2;SDS_P1;SDS_P2;PMS_P1;PMS_P2;Temp;Humidity;BMP_temperature;BMP_pressure;BME280_temperature;BME280_humidity;BME280_pressure;Samples;Min_cycle;Max_cycle;Signal;HPM_P1;HPM_P2
2023/06/02 08:07:25;;;;;;;;;14.00;11.50;;;;;20.46;45.92;101643.59;5025916;28;45549;-70
2023/06/02 08:09:52;;;;;;;;;16.00;16.00;;;;;20.62;44.66;101643.19;5023089;28;45442;-69
2023/06/02 08:12:17;;;;;;;;;18.75;18.25;;;;;20.79;44.73;101639.97;5027771;28;45669;-70
2023/06/02 08:14:42;;;;;;;;;13.75;13.75;;;;;20.97;44.43;101635.88;5019149;28;45442;-70
2023/06/02 08:17:08;;;;;;;;;16.75;14.75;;;;;21.11;43.79;101637.41;5014450;28;45506;-69
2023/06/02 08:19:33;;;;;;;;;14.33;11.33;;;;;21.25;44.19;101633.53;5027200;28;45471;-69
2023/06/02 08:21:58;;;;;;;;;15.33;14.00;;;;;21.47;43.31;101640.63;5020509;28;45386;-69
2023/06/02 08:24:28;;;;;;;;;14.00;14.00;;;;;21.58;43.59;101639.72;5025427;28;45382;-69
2023/06/02 08:26:54;;;;;;;;;15.00;15.00;;;;;21.67;43.07;101616.44;5013873;28;46085;-69
2023/06/02 08:29:20;;;;;;;;;13.00;13.00;;;;;21.81;42.94;101623.34;5028642;28;45447;-69
2023/06/02 08:31:47;;;;;;;;;15.67;13.33;;;;;21.91;42.52;101623.38;5023003;28;45453;-70
2023/06/02 08:34:12;;;;;;;;;16.67;14.00;;;;;22.08;42.26;101632.69;5022205;28;45501;-71
2023/06/02 08:36:38;;;;;;;;;15.00;13.00;;;;;22.14;42.11;101628.59;5027578;28;45462;-69
2023/06/02 08:39:06;;;;;;;;;16.00;12.67;;;;;22.19;42.20;101615.50;5027216;28;45454;-72
2023/06/02 08:41:39;;;;;;;;;17.33;14.33;;;;;22.27;41.53;101621.06;5019150;28;45578;-73
2023/06/02 08:44:05;;;;;;;;;17.00;13.67;;;;;22.30;41.57;101606.41;5025458;28;45524;-72
2023/06/02 08:46:31;;;;;;;;;13.67;13.67;;;;;22.39;41.43;101624.50;5025407;28;47073;-73
2023/06/02 08:48:58;;;;;;;;;13.00;13.00;;;;;22.49;41.40;101617.25;5027584;28;45487;-71
2023/06/02 08:51:24;;;;;;;;;16.33;12.33;;;;;22.55;41.09;101620.41;5027372;28;45540;-72
2023/06/02 08:53:50;;;;;;;;;15.67;14.00;;;;;22.63;40.85;101620.59;5024498;28;45583;-71
2023/06/02 08:56:16;;;;;;;;;14.33;13.67;;;;;22.59;40.53;101606.50;5024503;28;46225;-72
2023/06/02 08:58:45;;;;;;;;;17.00;14.67;;;;;22.63;40.48;101604.34;5025677;28;45451;-72
2023/06/02 09:01:11;;;;;;;;;14.67;13.33;;;;;22.71;40.62;101623.44;5025859;28;45652;-72
2023/06/02 09:03:36;;;;;;;;;14.00;14.00;;;;;22.66;40.47;101604.06;5022556;28;45567;-71
2023/06/02 09:06:26;;;;;;;;;13.33;13.33;;;;;22.71;40.24;101612.63;5025543;28;45635;-69
2023/06/02 09:09:00;;;;;;;;;14.67;14.67;;;;;22.74;40.43;101609.66;5013259;28;46434;-70
2023/06/02 09:11:27;;;;;;;;;13.67;11.33;;;;;22.74;40.23;101611.47;5025164;28;45425;-71
2023/06/02 09:13:53;;;;;;;;;11.00;11.00;;;;;22.83;40.47;101621.47;5021351;28;45616;-69
2023/06/02 09:16:20;;;;;;;;;11.00;11.00;;;;;22.94;40.25;101616.88;5025210;28;45570;-70
2023/06/02 09:18:59;;;;;;;;;14.00;14.00;;;;;22.96;40.07;101628.41;4997431;28;45524;-71
2023/06/02 09:21:32;;;;;;;;;12.00;12.00;;;;;22.94;39.97;101611.47;5004309;28;45495;-70
2023/06/02 09:23:58;;;;;;;;;12.33;12.33;;;;;22.97;40.14;101612.03;5014004;28;45345;-70
2023/06/02 09:26:30;;;;;;;;;13.00;11.00;;;;;22.96;40.59;101601.34;5010944;28;45510;-70
2023/06/02 09:29:03;;;;;;;;;8.67;8.67;;;;;23.02;40.22;101615.16;5005598;28;45401;-70
2023/06/02 09:31:53;;;;;;;;;9.00;9.00;;;;;23.09;40.26;101606.47;5002831;28;45762;-70
2023/06/02 09:34:23;;;;;;;;;13.67;11.00;;;;;23.04;39.93;101596.06;5014188;28;45679;-70
2023/06/02 09:36:53;;;;;;;;;11.67;10.00;;;;;23.06;40.05;101599.50;5010224;28;45478;-69
2023/06/02 09:39:41;;;;;;;;;13.33;11.67;;;;;23.09;39.93;101601.91;5013550;28;45448;-69
2023/06/02 09:42:07;;;;;;;;;10.33;10.00;;;;;23.08;39.95;101597.50;5012225;28;45483;-69
2023/06/02 09:44:33;;;;;;;;;7.33;7.00;;;;;23.07;39.79;101593.09;5007293;28;45670;-70
2023/06/02 09:46:59;;;;;;;;;10.00;10.00;;;;;23.15;39.79;101604.06;5009458;28;45497;-70
2023/06/02 09:49:25;;;;;;;;;10.33;9.67;;;;;23.15;40.11;101597.78;5013125;28;45519;-70
2023/06/02 09:51:50;;;;;;;;;11.00;9.67;;;;;23.30;39.63;101622.56;5011908;28;45518;-70
2023/06/02 09:54:16;;;;;;;;;9.00;9.00;;;;;23.19;39.76;101596.47;5012289;28;45352;-69
2023/06/02 09:56:42;;;;;;;;;9.33;9.00;;;;;23.25;39.66;101605.84;5010099;28;46413;-69
2023/06/02 09:59:08;;;;;;;;;10.33;10.00;;;;;23.20;39.79;101592.78;5013966;28;45471;-69
2023/06/02 10:01:37;;;;;;;;;10.33;10.33;;;;;23.23;40.01;101599.75;5011440;28;45725;-73
2023/06/02 10:04:05;;;;;;;;;11.00;11.00;;;;;23.30;39.49;101603.59;5013734;28;45454;-72
2023/06/02 10:06:50;;;;;;;;;12.67;11.00;;;;;23.35;39.66;101612.16;5009854;28;45462;-72
2023/06/02 10:09:33;;;;;;;;;14.00;11.67;;;;;23.41;39.55;101614.28;4993315;28;45387;-71
2023/06/02 10:12:08;;;;;;;;;8.00;8.00;;;;;23.44;39.55;101607.72;5010805;28;45440;-71
2023/06/02 10:15:06;;;;;;;;;15.00;11.67;;;;;23.45;39.51;101614.00;5011759;28;45461;-71
2023/06/02 10:17:50;;;;;;;;;11.67;11.33;;;;;23.28;39.21;101583.91;5008117;28;45976;-71
2023/06/02 10:20:40;;;;;;;;;10.67;10.67;;;;;23.43;39.35;101601.44;4999856;28;45675;-71
2023/06/02 10:23:20;;;;;;;;;10.67;10.67;;;;;23.49;39.27;101612.69;5013035;28;45435;-71
2023/06/02 10:26:31;;;;;;;;;9.33;9.33;;;;;23.51;39.09;101605.28;4995903;28;45682;-71
2023/06/02 10:29:00;;;;;;;;;10.00;8.67;;;;;23.37;39.28;101580.34;5004030;28;45824;-69
2023/06/02 10:31:33;;;;;;;;;10.33;10.00;;;;;23.43;39.09;101592.47;5006238;28;45452;-68
2023/06/02 10:34:00;;;;;;;;;7.00;6.33;;;;;23.43;39.21;101593.31;5006076;28;45408;-69
2023/06/02 10:36:48;;;;;;;;;10.00;8.00;;;;;23.39;39.03;101581.06;5010349;28;45539;-68
2023/06/02 10:39:40;;;;;;;;;10.00;10.00;;;;;23.52;38.96;101602.41;5008693;28;46841;-68
2023/06/02 10:42:06;;;;;;;;;8.00;8.00;;;;;23.40;39.26;101585.50;5006618;28;45650;-68
2023/06/02 10:44:32;;;;;;;;;10.33;9.67;;;;;23.46;39.19;101591.31;5012482;28;45517;-68
2023/06/02 10:47:19;;;;;;;;;8.67;8.67;;;;;23.58;38.94;101600.94;5010266;28;45631;-69
2023/06/02 10:50:05;;;;;;;;;10.00;9.00;;;;;23.49;39.05;101593.72;5001792;28;45523;-70
2023/06/02 10:52:33;;;;;;;;;10.67;9.33;;;;;23.47;38.92;101591.19;5005738;28;45670;-69
2023/06/02 10:55:24;;;;;;;;;11.67;10.00;;;;;23.50;40.42;101581.91;5008039;28;45456;-70
2023/06/02 10:57:53;;;;;;;;;15.33;13.67;;;;;23.56;40.90;101589.41;5002093;28;45433;-69
2023/06/02 11:00:35;;;;;;;;;10.33;10.00;;;;;23.62;40.83;101590.69;5009711;28;45710;-70
2023/06/02 11:03:16;;;;;;;;;8.00;8.00;;;;;23.61;41.21;101588.97;5003410;28;45515;-69
2023/06/02 11:05:42;;;;;;;;;12.00;11.00;;;;;23.48;41.10;101568.50;5006777;28;45535;-70
2023/06/02 11:08:23;;;;;;;;;11.33;11.00;;;;;23.61;41.47;101579.00;4994251;28;45358;-70
2023/06/02 11:10:58;;;;;;;;;13.67;13.67;;;;;23.51;41.56;101565.47;5001402;28;45625;-69
2023/06/02 11:13:27;;;;;;;;;14.33;13.00;;;;;23.48;41.11;101557.66;5008242;28;45457;-70
2023/06/02 11:15:56;;;;;;;;;12.67;12.00;;;;;23.61;41.96;101575.41;5010792;28;45537;-70
2023/06/02 11:18:21;;;;;;;;;11.67;11.67;;;;;23.59;41.67;101570.16;5005676;28;45508;-69
2023/06/02 11:20:49;;;;;;;;;11.00;10.00;;;;;23.43;41.57;101546.41;5006285;28;45451;-70
2023/06/02 11:23:17;;;;;;;;;13.67;13.67;;;;;23.43;42.36;101544.53;5011770;28;45354;-70
2023/06/02 11:25:43;;;;;;;;;16.33;11.67;;;;;23.51;41.66;101565.47;5012056;28;45550;-70
2023/06/02 11:28:21;;;;;;;;;15.33;15.33;;;;;23.38;41.12;101546.84;5011596;28;45683;-70
2023/06/02 11:31:07;;;;;;;;;13.33;10.67;;;;;23.36;41.08;101554.28;5009287;28;46358;-70
2023/06/02 11:33:34;;;;;;;;;11.33;11.33;;;;;23.30;40.26;101544.00;5010918;28;45441;-70
2023/06/02 11:36:00;;;;;;;;;14.67;12.00;;;;;23.39;39.78;101559.41;5008741;28;45629;-70
2023/06/02 11:38:31;;;;;;;;;11.67;9.00;;;;;23.23;39.97;101527.50;5006016;28;45484;-70
2023/06/02 11:41:10;;;;;;;;;14.00;10.33;;;;;23.32;40.01;101536.56;5010857;28;46336;-72
2023/06/02 11:43:36;;;;;;;;;13.67;12.67;;;;;23.32;40.36;101527.59;5011417;28;45453;-70
2023/06/02 11:46:09;;;;;;;;;14.00;12.67;;;;;23.47;40.11;101550.53;5005290;28;45567;-70
2023/06/02 11:48:38;;;;;;;;;11.33;10.67;;;;;23.40;40.02;101534.00;5008093;28;45824;-70
2023/06/02 11:51:08;;;;;;;;;10.67;9.33;;;;;23.40;40.04;101525.91;5004178;28;45487;-69
2023/06/02 11:53:38;;;;;;;;;10.67;8.33;;;;;23.50;41.27;101535.84;5006791;28;45586;-71
2023/06/02 11:56:07;;;;;;;;;12.00;10.00;;;;;23.42;40.41;101520.31;5011380;28;45405;-70
2023/06/02 11:58:43;;;;;;;;;11.67;10.00;;;;;23.48;40.46;101517.00;5007151;28;45762;-71
2023/06/02 12:01:12;;;;;;;;;9.67;8.00;;;;;23.48;40.38;101518.84;4997174;28;45824;-70
2023/06/02 12:03:37;;;;;;;;;9.33;9.33;;;;;23.50;40.75;101515.00;5011551;28;45719;-71
2023/06/02 12:06:13;;;;;;;;;10.33;9.33;;;;;23.61;41.00;101515.78;5006737;28;45500;-69
2023/06/02 12:08:39;;;;;;;;;11.67;10.33;;;;;23.54;40.93;101502.03;4996452;28;45519;-70
2023/06/02 12:11:17;;;;;;;;;10.33;10.33;;;;;23.59;40.91;101499.72;5001931;28;46329;-71
2023/06/02 12:13:55;;;;;;;;;10.67;9.00;;;;;23.67;41.11;101512.50;5000377;28;45522;-72
2023/06/02 12:16:21;;;;;;;;;11.00;8.00;;;;;23.75;40.97;101518.00;5010366;28;45503;-72
2023/06/02 12:18:48;;;;;;;;;9.00;7.67;;;;;23.72;41.03;101507.47;5004562;28;45749;-72
2023/06/02 12:21:42;;;;;;;;;10.00;8.00;;;;;23.81;41.13;101506.56;5001832;28;45443;-71
2023/06/02 12:24:09;;;;;;;;;8.67;8.67;;;;;23.77;41.07;101496.16;5005835;28;45842;-71
2023/06/02 12:26:40;;;;;;;;;9.00;9.00;;;;;23.78;40.84;101501.44;5010847;28;45815;-72
2023/06/02 12:29:05;;;;;;;;;10.00;10.00;;;;;23.79;41.37;101499.59;5011212;28;45688;-72
2023/06/02 12:31:31;;;;;;;;;8.33;8.33;;;;;23.87;41.28;101512.38;5009884;28;46422;-70
2023/06/02 12:33:56;;;;;;;;;8.67;8.67;;;;;23.94;40.80;101516.19;5011170;28;45722;-70
2023/06/02 12:36:22;;;;;;;;;11.67;10.00;;;;;23.80;41.06;101487.75;5003553;28;45535;-72
2023/06/02 12:38:47;;;;;;;;;7.00;7.00;;;;;23.89;41.04;101497.69;5009261;28;45472;-71
2023/06/02 12:41:12;;;;;;;;;8.33;8.33;;;;;23.86;41.21;101499.84;5002016;28;46050;-71
2023/06/02 12:43:42;;;;;;;;;11.00;10.00;;;;;23.96;41.47;101511.47;5010360;28;45495;-71
2023/06/02 12:46:08;;;;;;;;;9.00;9.00;;;;;23.91;40.88;101503.78;5006901;28;45581;-72
2023/06/02 12:48:33;;;;;;;;;7.33;7.33;;;;;23.89;40.95;101502.22;5010811;28;45527;-71
2023/06/02 12:50:59;;;;;;;;;9.33;9.33;;;;;23.97;41.33;101509.59;5010568;28;46567;-70
2023/06/02 12:53:24;;;;;;;;;8.67;8.67;;;;;23.90;41.26;101493.09;5008530;28;45525;-71
2023/06/02 12:55:50;;;;;;;;;11.00;10.33;;;;;24.02;41.26;101504.56;5014313;28;45536;-71
2023/06/02 12:58:16;;;;;;;;;8.67;8.67;;;;;23.89;41.32;101486.84;5014206;28;45438;-71
2023/06/02 13:00:41;;;;;;;;;8.33;8.00;;;;;23.94;41.04;101489.94;5012463;28;45517;-71
2023/06/02 13:03:07;;;;;;;;;10.00;9.00;;;;;24.04;41.31;101508.00;5008160;28;45560;-71
2023/06/02 13:05:35;;;;;;;;;10.00;8.33;;;;;23.95;40.96;101488.09;5014157;28;45568;-70
2023/06/02 13:08:01;;;;;;;;;8.67;8.00;;;;;23.98;41.07;101487.75;5011507;28;45632;-71
2023/06/02 13:10:27;;;;;;;;;9.00;9.00;;;;;24.03;41.07;101490.88;4995650;28;45511;-70
2023/06/02 13:12:53;;;;;;;;;6.00;6.00;;;;;24.02;41.11;101483.75;5007157;28;45373;-72
2023/06/02 13:15:19;;;;;;;;;12.33;9.00;;;;;24.06;41.34;101489.69;5006618;28;45599;-71
2023/06/02 13:17:45;;;;;;;;;8.33;8.33;;;;;24.12;41.24;101493.69;5013339;28;45355;-70
2023/06/02 13:20:11;;;;;;;;;9.00;8.33;;;;;24.04;41.54;101479.00;5013847;28;46191;-70
2023/06/02 13:22:36;;;;;;;;;8.00;8.00;;;;;24.08;41.36;101483.13;5012436;28;45464;-70
2023/06/02 13:25:02;;;;;;;;;8.00;8.00;;;;;24.06;40.88;101479.72;5014425;28;45679;-70
2023/06/02 13:27:28;;;;;;;;;8.00;8.00;;;;;24.10;41.22;101471.31;5012829;28;45401;-70
2023/06/02 13:29:53;;;;;;;;;8.67;7.67;;;;;24.12;41.35;101472.88;5013503;28;46096;-70
2023/06/02 13:32:18;;;;;;;;;8.00;8.00;;;;;24.10;41.24;101476.75;5013176;28;45500;-70
2023/06/02 13:34:55;;;;;;;;;8.67;8.00;;;;;24.11;41.33;101465.72;5010053;28;45427;-70
2023/06/02 13:37:21;;;;;;;;;9.67;8.67;;;;;24.21;40.85;101476.50;4995637;28;45463;-71
2023/06/02 13:39:47;;;;;;;;;7.00;7.00;;;;;24.14;41.20;101464.56;5009585;28;45666;-70
2023/06/02 13:42:12;;;;;;;;;6.33;6.33;;;;;24.13;41.14;101462.84;5007570;28;45977;-70
2023/06/02 13:44:38;;;;;;;;;9.67;9.67;;;;;24.14;41.22;101453.69;5013018;28;45335;-71
2023/06/02 13:47:04;;;;;;;;;8.00;7.00;;;;;24.29;41.07;101481.13;5013256;28;46379;-71
2023/06/02 13:49:29;;;;;;;;;9.00;9.00;;;;;24.10;40.85;101444.19;5013452;28;45363;-71
2023/06/02 13:51:54;;;;;;;;;10.33;8.67;;;;;24.12;41.35;101453.88;5012586;28;45744;-70
2023/06/02 13:54:20;;;;;;;;;9.00;9.00;;;;;24.21;41.08;101463.75;5013584;28;45459;-72
2023/06/02 13:56:46;;;;;;;;;9.33;7.33;;;;;24.13;41.09;101444.72;5000851;28;45318;-71
2023/06/02 13:59:12;;;;;;;;;7.33;7.33;;;;;24.16;41.00;101438.16;5010782;28;48393;-70
2023/06/02 14:01:38;;;;;;;;;8.33;8.33;;;;;24.19;41.63;101446.81;5009606;28;45480;-71
2023/06/02 14:04:08;;;;;;;;;8.33;6.00;;;;;24.23;41.48;101446.50;5009155;28;45540;-69
2023/06/02 14:06:35;;;;;;;;;9.33;8.33;;;;;24.21;40.92;101442.06;5007458;28;45540;-69
2023/06/02 14:09:07;;;;;;;;;8.33;8.33;;;;;24.28;41.36;101441.47;5000426;28;45489;-69
2023/06/02 14:11:37;;;;;;;;;7.00;7.00;;;;;24.22;41.56;101432.09;5008586;28;45587;-72
2023/06/02 14:14:03;;;;;;;;;12.33;10.00;;;;;24.20;41.99;101434.94;5005790;28;45402;-72
2023/06/02 14:16:28;;;;;;;;;12.00;12.00;;;;;24.20;42.35;101420.56;5006283;28;45551;-71
2023/06/02 14:18:54;;;;;;;;;10.00;9.33;;;;;24.16;42.01;101421.88;5011810;28;46377;-72
2023/06/02 14:21:19;;;;;;;;;15.33;15.00;;;;;24.14;42.49;101427.44;5008562;28;45647;-72
2023/06/02 14:23:45;;;;;;;;;9.33;9.00;;;;;24.13;42.20;101436.59;5008368;28;45719;-74
2023/06/02 14:26:10;;;;;;;;;9.67;9.67;;;;;24.11;41.85;101421.50;4999969;28;45492;-73
2023/06/02 14:28:35;;;;;;;;;8.67;8.33;;;;;24.12;41.68;101415.06;5012829;28;45652;-74
2023/06/02 14:31:01;;;;;;;;;7.00;7.00;;;;;24.17;41.60;101426.28;5013842;28;45559;-75
2023/06/02 14:33:26;;;;;;;;;11.67;10.00;;;;;24.22;41.77;101418.53;5012284;28;47623;-73
2023/06/02 14:35:51;;;;;;;;;10.67;10.67;;;;;24.15;41.52;101407.44;5012752;28;45603;-75
2023/06/02 14:38:17;;;;;;;;;12.00;10.00;;;;;24.16;41.15;101416.44;5012816;28;46347;-73
2023/06/02 14:40:42;;;;;;;;;12.33;10.00;;;;;24.21;41.43;101422.25;5011901;28;45663;-74
2023/06/02 14:43:07;;;;;;;;;9.33;8.33;;;;;24.19;41.69;101411.56;5012777;28;45455;-74
2023/06/02 14:45:33;;;;;;;;;11.00;8.33;;;;;24.18;41.87;101393.59;5012526;28;45500;-73
2023/06/02 14:47:58;;;;;;;;;9.33;8.33;;;;;24.19;41.57;101403.41;5011958;28;48118;-73
2023/06/02 14:50:23;;;;;;;;;7.00;7.00;;;;;24.25;41.31;101404.66;5012125;28;45562;-69
2023/06/02 14:52:49;;;;;;;;;11.33;9.33;;;;;24.21;41.65;101395.13;5003233;28;45661;-69
2023/06/02 14:55:14;;;;;;;;;10.67;9.00;;;;;24.22;41.36;101394.09;4998933;28;45535;-69
2023/06/02 14:57:40;;;;;;;;;9.00;9.00;;;;;24.37;41.56;101405.25;5010691;28;45552;-71
2023/06/02 15:00:06;;;;;;;;;12.33;9.67;;;;;24.28;41.31;101398.91;5006563;28;45677;-71
2023/06/02 15:02:32;;;;;;;;;9.67;7.33;;;;;24.35;41.76;101407.25;4999288;28;45525;-71
2023/06/02 15:04:57;;;;;;;;;9.00;7.67;;;;;24.34;41.75;101398.28;5004751;28;45711;-71
2023/06/02 15:07:23;;;;;;;;;7.00;7.00;;;;;24.27;41.90;101383.63;5004078;28;46287;-71
2023/06/02 15:09:48;;;;;;;;;9.33;8.67;;;;;24.24;41.94;101374.97;4999106;28;45851;-70
2023/06/02 15:12:14;;;;;;;;;7.67;7.67;;;;;24.27;41.34;101374.66;5011813;28;45620;-71
2023/06/02 15:14:40;;;;;;;;;8.00;6.00;;;;;24.31;41.71;101379.59;5005749;28;45827;-72
2023/06/02 15:17:05;;;;;;;;;8.67;8.00;;;;;24.25;41.84;101371.25;4999504;28;45549;-72
2023/06/02 15:19:31;;;;;;;;;7.67;7.00;;;;;24.25;41.53;101361.25;5004793;28;45846;-70
2023/06/02 15:21:56;;;;;;;;;7.67;6.33;;;;;24.29;41.76;101369.91;5010361;28;45470;-70
2023/06/02 15:24:22;;;;;;;;;8.00;8.00;;;;;24.39;41.98;101384.22;5008704;28;45762;-72
2023/06/02 15:26:47;;;;;;;;;10.67;10.67;;;;;24.43;41.31;101391.03;5010948;28;45478;-69
2023/06/02 15:29:15;;;;;;;;;7.67;7.67;;;;;24.30;41.50;101367.06;5001909;28;45844;-70
2023/06/02 15:31:40;;;;;;;;;8.00;7.33;;;;;24.41;41.53;101367.81;5010714;28;45513;-70
2023/06/02 15:34:06;;;;;;;;;9.33;7.67;;;;;24.39;41.47;101370.66;5012062;28;45441;-71
2023/06/02 15:36:32;;;;;;;;;9.00;9.00;;;;;24.46;41.46;101371.75;5001515;28;45546;-71
2023/06/02 15:38:57;;;;;;;;;7.33;7.33;;;;;24.44;41.43;101381.06;5011473;28;45490;-71
2023/06/02 15:41:23;;;;;;;;;8.00;8.00;;;;;24.46;41.50;101382.59;5002340;28;45490;-71
2023/06/02 15:43:48;;;;;;;;;8.33;8.33;;;;;24.47;41.70;101392.44;5005544;28;45322;-72
2023/06/02 15:46:13;;;;;;;;;9.67;9.67;;;;;24.48;41.28;101377.84;5006433;28;46502;-69
2023/06/02 15:48:43;;;;;;;;;9.33;8.67;;;;;24.45;42.10;101375.44;5011906;28;45412;-69
2023/06/02 15:51:09;;;;;;;;;10.00;10.00;;;;;24.47;41.58;101372.56;5006859;28;45376;-70
2023/06/02 15:53:34;;;;;;;;;10.00;8.33;;;;;24.47;41.68;101367.16;4999061;28;45368;-71
2023/06/02 15:55:59;;;;;;;;;13.67;9.67;;;;;24.45;41.15;101375.44;4999759;28;46165;-69
2023/06/02 15:58:25;;;;;;;;;23.33;16.67;;;;;24.45;40.16;101371.91;5006491;28;52450;-69
2023/06/02 16:00:50;;;;;;;;;13.67;12.33;;;;;24.41;40.89;101355.09;5010094;28;45509;-69
2023/06/02 16:03:15;;;;;;;;;12.67;11.67;;;;;24.44;40.80;101362.06;5010959;28;45516;-69
2023/06/02 16:05:41;;;;;;;;;12.00;11.33;;;;;24.42;41.21;101364.06;5011459;28;46462;-69
2023/06/02 16:08:06;;;;;;;;;10.33;10.33;;;;;24.40;41.10;101366.09;4997115;28;45416;-70
2023/06/02 16:10:31;;;;;;;;;9.00;7.33;;;;;24.38;41.78;101362.69;5021927;28;45817;-71
2023/06/02 16:12:56;;;;;;;;;15.67;11.00;;;;;24.36;41.82;101364.72;4997297;28;45841;-70
2023/06/02 16:15:22;;;;;;;;;10.33;10.33;;;;;24.35;42.12;101361.13;4999696;28;55765;-69
2023/06/02 16:17:48;;;;;;;;;9.67;9.33;;;;;24.35;41.58;101361.13;5016907;28;45419;-69
2023/06/02 16:20:14;;;;;;;;;9.67;8.33;;;;;24.33;41.65;101353.16;5004229;28;45460;-69
2023/06/02 16:22:39;;;;;;;;;11.33;10.67;;;;;24.36;41.49;101356.56;5009435;28;45733;-70
2023/06/02 16:25:06;;;;;;;;;13.33;11.33;;;;;24.35;41.99;101353.00;5004268;28;45505;-71
2023/06/02 16:27:31;;;;;;;;;9.00;9.00;;;;;24.37;41.62;101359.13;4999941;28;45589;-71
2023/06/02 16:29:57;;;;;;;;;14.00;10.33;;;;;24.36;41.86;101360.13;5005500;28;45472;-71
2023/06/02 16:32:22;;;;;;;;;13.67;11.00;;;;;24.38;41.96;101354.53;5007976;28;52322;-74
2023/06/02 16:34:47;;;;;;;;;16.67;15.00;;;;;24.41;41.25;101354.22;5010838;28;46610;-68
2023/06/02 16:37:15;;;;;;;;;13.00;11.00;;;;;24.40;41.57;101347.94;5004381;28;45738;-68
2023/06/02 16:39:40;;;;;;;;;8.67;8.33;;;;;24.42;41.94;101345.06;5005740;28;45435;-68
2023/06/02 16:42:06;;;;;;;;;12.67;11.33;;;;;24.39;41.72;101346.25;5011140;28;45445;-70
2023/06/02 16:44:31;;;;;;;;;11.33;9.67;;;;;24.43;41.79;101352.19;5014307;28;45449;-69
2023/06/02 16:46:56;;;;;;;;;12.00;12.00;;;;;24.43;41.54;101344.06;5000418;28;45337;-68
2023/06/02 16:49:21;;;;;;;;;11.67;9.00;;;;;24.42;41.36;101342.38;5014499;28;45454;-69
2023/06/02 16:51:47;;;;;;;;;12.67;12.67;;;;;24.44;41.16;101349.34;5003456;28;52240;-68
2023/06/02 16:54:14;;;;;;;;;13.67;11.33;;;;;24.43;41.14;101342.22;5009268;28;46186;-68
2023/06/02 16:56:40;;;;;;;;;13.00;13.00;;;;;24.44;40.80;101345.78;5010439;28;45648;-69
2023/06/02 16:59:05;;;;;;;;;13.00;12.00;;;;;24.42;40.65;101335.09;5013930;28;45410;-70
2023/06/02 17:01:31;;;;;;;;;13.33;12.67;;;;;24.44;40.70;101337.66;5010629;28;45558;-69
2023/06/02 17:03:57;;;;;;;;;12.67;10.33;;;;;24.45;39.96;101336.63;5007603;28;46502;-69
2023/06/02 17:06:22;;;;;;;;;11.67;10.33;;;;;24.44;40.52;101337.66;5013251;28;45447;-72
2023/06/02 17:08:48;;;;;;;;;10.33;7.33;;;;;24.41;40.37;101338.81;5002186;28;45989;-69
2023/06/02 17:11:13;;;;;;;;;16.67;16.00;;;;;24.43;40.51;101344.91;5014412;28;45433;-69
2023/06/02 17:13:38;;;;;;;;;9.00;8.00;;;;;24.42;40.48;101351.38;5009024;28;45714;-69
2023/06/02 17:16:04;;;;;;;;;18.33;14.33;;;;;24.44;40.17;101345.78;5013798;28;45451;-69
2023/06/02 17:18:29;;;;;;;;;11.67;8.33;;;;;24.44;40.44;101351.22;5011339;28;45468;-69
2023/06/02 17:20:55;;;;;;;;;12.33;11.00;;;;;24.43;40.15;101352.19;5013866;28;45376;-68
2023/06/02 17:23:20;;;;;;;;;14.00;12.00;;;;;24.42;39.69;101350.50;5013903;28;45399;-69
2023/06/02 17:25:45;;;;;;;;;11.33;11.33;;;;;24.31;39.55;101349.75;5013688;28;45793;-69
2023/06/02 17:28:11;;;;;;;;;11.67;10.33;;;;;24.37;39.69;101351.00;5008636;28;45496;-68
2023/06/02 17:30:36;;;;;;;;;14.67;12.00;;;;;24.37;39.48;101358.28;5005149;28;45358;-69
2023/06/02 17:33:02;;;;;;;;;13.33;11.67;;;;;24.33;39.12;101360.47;5003422;28;49864;-69
2023/06/02 17:35:27;;;;;;;;;14.00;13.00;;;;;24.31;39.21;101357.91;5005051;28;47031;-68
2023/06/02 17:37:52;;;;;;;;;11.00;11.00;;;;;24.29;39.19;101362.66;5001215;28;45426;-69
2023/06/02 17:40:18;;;;;;;;;12.67;10.33;;;;;24.31;39.07;101362.47;5003835;28;45575;-69
2023/06/02 17:42:43;;;;;;;;;12.67;11.00;;;;;24.29;39.66;101361.78;5007624;28;48394;-68
2023/06/02 17:45:09;;;;;;;;;11.67;11.00;;;;;24.28;40.11;101366.34;5006592;28;45502;-69
2023/06/02 17:47:35;;;;;;;;;13.67;11.33;;;;;24.29;40.72;101362.66;5008260;28;46392;-68
2023/06/02 17:50:00;;;;;;;;;15.33;12.00;;;;;24.30;41.01;101371.63;4999754;28;45488;-69
2023/06/02 17:52:26;;;;;;;;;13.33;13.33;;;;;24.27;41.36;101366.53;5011355;28;45377;-68
2023/06/02 17:54:52;;;;;;;;;11.33;10.00;;;;;24.24;41.40;101359.56;5011464;28;45544;-68
2023/06/02 17:57:17;;;;;;;;;15.00;13.00;;;;;24.26;41.33;101367.50;5012088;28;45536;-69
2023/06/02 17:59:45;;;;;;;;;12.00;10.33;;;;;24.27;41.65;101371.97;5003627;28;47672;-68
2023/06/02 18:02:11;;;;;;;;;12.00;12.00;;;;;24.26;41.47;101381.94;5005332;28;45756;-68
2023/06/02 18:04:36;;;;;;;;;9.67;9.67;;;;;24.25;40.37;101376.66;5004690;28;45428;-68
2023/06/02 18:07:03;;;;;;;;;10.67;10.67;;;;;24.20;39.94;101378.00;5008446;28;46217;-68
2023/06/02 18:09:29;;;;;;;;;16.67;11.33;;;;;24.19;39.47;101378.13;5012272;28;46812;-68
2023/06/02 18:11:54;;;;;;;;;10.00;10.00;;;;;24.11;39.30;101378.09;5009055;28;45360;-68
2023/06/02 18:14:19;;;;;;;;;15.67;12.33;;;;;24.13;39.40;101386.91;5008403;28;45671;-68
2023/06/02 18:16:45;;;;;;;;;12.67;12.33;;;;;24.14;39.58;101386.75;5003435;28;45795;-68
2023/06/02 18:19:11;;;;;;;;;10.67;10.67;;;;;24.13;39.09;101384.22;5000750;28;45785;-68
2023/06/02 18:21:36;;;;;;;;;10.00;10.00;;;;;24.13;39.00;101393.19;5000065;28;45877;-69
2023/06/02 18:24:02;;;;;;;;;14.33;11.67;;;;;24.13;39.40;101387.78;5001004;28;45510;-68
2023/06/02 18:26:27;;;;;;;;;10.33;10.33;;;;;24.12;38.78;101391.50;5001367;28;45542;-68
2023/06/02 18:28:53;;;;;;;;;12.33;11.67;;;;;24.13;38.75;101395.06;5002464;28;45427;-68
2023/06/02 18:31:20;;;;;;;;;14.00;10.33;;;;;24.09;38.62;101391.81;5003794;28;46244;-68
2023/06/02 18:33:45;;;;;;;;;10.33;10.33;;;;;24.07;38.56;101388.34;5001684;28;45719;-69
2023/06/02 18:36:11;;;;;;;;;10.00;10.00;;;;;24.05;38.40;101393.97;5004355;28;45677;-68
2023/06/02 18:38:36;;;;;;;;;13.33;13.00;;;;;24.05;38.07;101403.94;4998799;28;45714;-69
2023/06/02 18:41:09;;;;;;;;;15.33;12.00;;;;;24.05;38.10;101406.66;4997844;28;46420;-68
2023/06/02 18:43:34;;;;;;;;;12.33;11.00;;;;;24.03;38.16;101403.25;4999401;28;45501;-68
2023/06/02 18:46:00;;;;;;;;;12.00;10.67;;;;;24.01;37.93;101402.53;5003585;28;45656;-69
2023/06/02 18:48:26;;;;;;;;;13.67;12.00;;;;;23.95;38.54;101394.03;5001561;28;45468;-68
2023/06/02 18:50:51;;;;;;;;;16.67;12.33;;;;;23.98;38.23;101398.28;5000118;28;45522;-69
2023/06/02 18:53:17;;;;;;;;;9.33;9.33;;;;;23.98;38.29;101403.72;5001778;28;45690;-68
2023/06/02 18:55:42;;;;;;;;;12.33;12.00;;;;;23.94;37.98;101405.03;5003935;28;45764;-69
2023/06/02 18:58:07;;;;;;;;;13.33;12.00;;;;;23.92;37.86;101412.47;5001118;28;48967;-69
2023/06/02 19:00:33;;;;;;;;;11.00;11.00;;;;;23.90;38.03;101409.91;5001469;28;45677;-69
2023/06/02 19:02:59;;;;;;;;;12.00;11.67;;;;;23.90;38.07;101415.34;4998685;28;45617;-69
2023/06/02 19:05:24;;;;;;;;;12.67;12.33;;;;;23.87;38.00;101410.22;4997248;28;45599;-69
2023/06/02 19:07:49;;;;;;;;;11.67;10.00;;;;;23.86;37.86;101407.69;5003736;28;45616;-69
2023/06/02 19:10:15;;;;;;;;;10.67;10.67;;;;;23.86;38.20;101408.50;4994038;28;57281;-70
